Time;durP1;ratioP1;P1;durP2;ratioP2;P2;SDS_P1;SDS_P2;PMS_P1;PMS_P2;Temp;Humidity;BMP_temperature;BMP_pressure;BME280_temperature;BME280_humidity;BME280_pressure;Samples;Min_cycle;Max_cycle;Signal;HPM_P1;HPM_P2
2022/11/28 00:02:44;;;;;;;17.77;8.75;;;8.30;77.00;;;;;;2354706;57;23013;-56
2022/11/28 00:05:12;;;;;;;18.77;9.77;;;8.30;77.10;;;;;;2346691;57;21628;-56
2022/11/28 00:07:39;;;;;;;15.32;9.27;;;8.30;77.00;;;;;;2352049;56;21129;-56
2022/11/28 00:10:09;;;;;;;13.43;7.80;;;8.30;77.10;;;;;;2374590;56;21039;-56
2022/11/28 00:12:37;;;;;;;16.92;8.70;;;8.30;76.90;;;;;;2375686;56;21015;-55
2022/11/28 00:15:05;;;;;;;28.92;9.68;;;8.30;76.80;;;;;;2375999;56;21022;-55
2022/11/28 00:17:32;;;;;;;15.60;8.55;;;8.30;76.70;;;;;;2374007;56;21054;-55
2022/11/28 00:19:59;;;;;;;17.17;9.60;;;8.30;76.80;;;;;;2373963;56;21035;-55
2022/11/28 00:22:28;;;;;;;15.70;8.02;;;8.30;77.00;;;;;;2372209;56;21417;-55
2022/11/28 00:24:55;;;;;;;13.50;8.45;;;8.30;76.80;;;;;;2371840;56;21130;-55
2022/11/28 00:27:22;;;;;;;17.77;8.10;;;8.30;76.70;;;;;;2371838;56;21161;-56
2022/11/28 00:29:49;;;;;;;13.43;7.53;;;8.20;76.60;;;;;;2371272;56;21082;-56
2022/11/28 00:32:16;;;;;;;13.05;8.77;;;8.20;76.60;;;;;;2370823;56;21127;-55
2022/11/28 00:34:44;;;;;;;17.25;7.78;;;8.20;76.70;;;;;;2371357;56;21542;-56
2022/11/28 00:37:11;;;;;;;16.15;7.90;;;8.20;76.80;;;;;;2370819;56;21137;-55
2022/11/28 00:39:38;;;;;;;15.07;8.10;;;8.30;76.80;;;;;;2371761;56;21193;-55
2022/11/28 00:42:05;;;;;;;12.70;7.78;;;8.30;76.60;;;;;;2371431;56;21126;-54
2022/11/28 00:44:32;;;;;;;15.57;7.43;;;8.30;76.60;;;;;;2371335;56;21116;-56
2022/11/28 00:46:59;;;;;;;14.02;7.95;;;8.30;76.60;;;;;;2371437;56;21035;-54
2022/11/28 00:49:26;;;;;;;14.23;8.43;;;8.30;76.40;;;;;;2370572;56;21061;-55
2022/11/28 00:51:54;;;;;;;13.35;7.57;;;8.40;76.50;;;;;;2371297;56;21567;-56
2022/11/28 00:54:21;;;;;;;15.38;8.63;;;8.40;76.00;;;;;;2370808;56;21047;-55
2022/11/28 00:56:48;;;;;;;13.98;8.25;;;8.40;76.20;;;;;;2371566;56;21035;-56
2022/11/28 00:59:15;;;;;;;15.40;8.50;;;8.40;76.10;;;;;;2342884;54;21058;-59
2022/11/28 01:01:43;;;;;;;14.20;8.93;;;8.40;76.00;;;;;;2327764;57;21161;-56
2022/11/28 01:04:12;;;;;;;16.52;7.55;;;8.40;75.80;;;;;;2328768;57;21045;-51
2022/11/28 01:06:41;;;;;;;16.95;8.48;;;8.40;75.80;;;;;;2329098;57;21565;-59
2022/11/28 01:09:11;;;;;;;14.63;8.15;;;8.40;75.70;;;;;;2327547;57;21545;-58
2022/11/28 01:11:39;;;;;;;15.20;7.87;;;8.40;75.70;;;;;;2327225;57;21585;-54
2022/11/28 01:14:07;;;;;;;11.20;7.80;;;8.30;75.60;;;;;;2328785;57;21522;-54
2022/11/28 01:16:34;;;;;;;16.10;8.70;;;8.30;75.80;;;;;;2325437;57;21149;-55
2022/11/28 01:19:01;;;;;;;15.63;8.88;;;8.30;75.90;;;;;;2324950;57;21058;-54
2022/11/28 01:21:28;;;;;;;21.48;8.18;;;8.30;76.00;;;;;;2324908;57;21062;-50
2022/11/28 01:23:56;;;;;;;13.60;8.20;;;8.30;76.00;;;;;;2324385;57;21058;-55
2022/11/28 01:26:25;;;;;;;14.23;8.35;;;8.30;76.00;;;;;;2325263;57;21602;-56
2022/11/28 01:28:53;;;;;;;19.42;8.60;;;8.30;76.10;;;;;;2324388;57;21573;-53
2022/11/28 01:31:25;;;;;;;16.33;9.02;;;8.30;76.10;;;;;;2325095;57;21628;-50
2022/11/28 01:33:53;;;;;;;16.35;8.25;;;8.20;75.90;;;;;;2325230;57;21132;-50
2022/11/28 01:36:21;;;;;;;11.60;7.78;;;8.20;76.00;;;;;;2325336;57;21633;-52
2022/11/28 01:38:49;;;;;;;14.15;8.50;;;8.20;76.10;;;;;;2328471;57;21054;-52
2022/11/28 01:44:05;;;;;;;13.38;8.50;;;8.20;76.30;;;;;;2334857;57;28374;-50
2022/11/28 01:46:33;;;;;;;14.98;8.85;;;8.10;77.90;;;;;;2345467;57;21600;-55
2022/11/28 01:49:06;;;;;;;15.65;7.97;;;8.20;77.40;;;;;;2362361;56;21641;-54
2022/11/28 01:51:34;;;;;;;;;;;8.30;76.60;;;;;;2377241;56;21616;-50
2022/11/28 01:54:02;;;;;;;13.45;7.57;;;8.40;76.20;;;;;;2373242;56;20505;-51
2022/11/28 01:56:37;;;;;;;15.65;8.13;;;8.30;75.40;;;;;;2375145;56;21554;-55
2022/11/28 01:59:07;;;;;;;17.62;8.35;;;8.20;75.60;;;;;;2375363;56;21102;-53
2022/11/28 02:01:34;;;;;;;15.10;8.40;;;8.20;75.80;;;;;;2375387;56;21018;-51
2022/11/28 02:04:02;;;;;;;14.15;8.43;;;8.20;75.90;;;;;;2374052;56;21673;-49
2022/11/28 02:06:31;;;;;;;18.17;9.30;;;8.20;76.00;;;;;;2373555;56;21661;-51
2022/11/28 02:08:58;;;;;;;15.40;8.52;;;8.20;76.10;;;;;;2373408;56;21546;-56
2022/11/28 02:11:58;;;;;;;14.63;8.77;;;8.20;76.00;;;;;;2373668;56;21050;-52
2022/11/28 02:14:54;;;;;;;14.55;8.23;;;8.20;76.00;;;;;;2361217;56;21124;-49
2022/11/28 02:17:34;;;;;;;14.35;8.02;;;8.20;76.00;;;;;;2358460;56;21102;-53
2022/11/28 02:20:49;;;;;;;14.90;8.57;;;8.10;75.90;;;;;;2372327;56;21543;-51
2022/11/28 02:23:24;;;;;;;16.05;8.27;;;8.20;76.20;;;;;;2374342;56;21062;-54
2022/11/28 02:26:15;;;;;;;15.80;8.90;;;8.10;76.00;;;;;;2373467;56;21531;-55
2022/11/28 02:32:09;;;;;;;21.27;8.68;;;8.10;76.30;;;;;;2354475;57;22616;-52
2022/11/28 02:34:43;;;;;;;14.80;7.60;;;8.00;76.20;;;;;;2346737;57;21057;-52
2022/11/28 02:37:21;;;;;;;15.13;8.32;;;8.00;76.40;;;;;;2346822;57;22190;-51
2022/11/28 02:40:01;;;;;;;16.42;8.75;;;8.00;76.30;;;;;;2373214;56;21484;-50
2022/11/28 02:42:53;;;;;;;16.80;8.52;;;8.00;76.30;;;;;;2375649;56;21047;-55
2022/11/28 02:45:28;;;;;;;14.93;8.20;;;8.00;76.20;;;;;;2373463;56;21570;-54
2022/11/28 02:48:02;;;;;;;17.45;8.75;;;8.00;76.00;;;;;;2374057;56;21566;-54
2022/11/28 02:50:34;;;;;;;16.23;7.82;;;7.90;76.00;;;;;;2373901;56;21633;-50
2022/11/28 02:53:07;;;;;;;14.85;8.13;;;7.90;76.00;;;;;;2373741;56;21123;-53
2022/11/28 02:55:37;;;;;;;18.02;9.25;;;7.90;75.90;;;;;;2375602;56;21538;-52
2022/11/28 02:58:05;;;;;;;15.85;9.18;;;7.90;75.90;;;;;;2375649;56;21526;-52
2022/11/28 03:00:35;;;;;;;14.02;7.72;;;8.00;75.90;;;;;;2374325;56;21605;-51
2022/11/28 03:03:21;;;;;;;18.67;7.80;;;8.00;75.70;;;;;;2374659;56;21059;-56
2022/11/28 03:05:54;;;;;;;18.83;9.43;;;7.90;75.60;;;;;;2372823;56;21775;-52
2022/11/28 03:08:35;;;;;;;16.95;7.15;;;7.90;75.40;;;;;;2375055;56;21712;-53
2022/11/28 03:11:09;;;;;;;15.50;7.75;;;7.90;75.50;;;;;;2373619;56;21645;-56
2022/11/28 03:13:46;;;;;;;13.38;7.70;;;7.90;75.40;;;;;;2374906;56;21330;-50
2022/11/28 03:16:22;;;;;;;12.75;7.53;;;7.90;75.40;;;;;;2374028;56;21523;-52
2022/11/28 03:19:00;;;;;;;12.88;7.05;;;8.00;75.40;;;;;;2374378;56;21558;-54
2022/11/28 03:21:38;;;;;;;19.05;8.10;;;8.00;75.20;;;;;;2374759;56;21023;-50
2022/11/28 03:24:13;;;;;;;13.75;7.00;;;8.00;75.00;;;;;;2374663;56;21114;-52
2022/11/28 03:26:50;;;;;;;15.43;8.75;;;8.00;75.00;;;;;;2375079;56;21126;-50
2022/11/28 03:29:22;;;;;;;17.35;8.05;;;8.00;74.80;;;;;;2373788;56;21542;-51
2022/11/28 03:31:53;;;;;;;18.10;8.57;;;7.90;74.70;;;;;;2375372;56;21538;-51
2022/11/28 03:34:26;;;;;;;14.90;8.50;;;8.00;74.60;;;;;;2374861;56;21109;-52
2022/11/28 03:36:58;;;;;;;14.10;7.47;;;8.00;74.60;;;;;;2374382;56;21598;-53
2022/11/28 03:39:32;;;;;;;17.55;8.13;;;8.00;74.60;;;;;;2374877;56;21133;-53
2022/11/28 03:42:05;;;;;;;13.57;7.00;;;8.00;74.40;;;;;;2374408;56;21583;-52
2022/11/28 03:44:43;;;;;;;12.63;7.97;;;8.00;74.40;;;;;;2373797;56;21063;-49
2022/11/28 03:47:10;;;;;;;16.33;8.68;;;8.00;74.50;;;;;;2372772;56;21110;-53
2022/11/28 03:49:40;;;;;;;13.15;8.25;;;8.00;74.60;;;;;;2372894;56;21082;-53
2022/11/28 03:52:11;;;;;;;14.18;8.20;;;8.00;74.30;;;;;;2374591;56;21023;-48
2022/11/28 03:54:46;;;;;;;14.25;7.87;;;8.00;74.30;;;;;;2374600;56;21007;-50
2022/11/28 03:57:21;;;;;;;16.08;8.23;;;8.00;74.00;;;;;;2375162;56;21491;-52
2022/11/28 03:59:50;;;;;;;13.77;7.95;;;8.00;73.80;;;;;;2374617;56;21031;-54
2022/11/28 04:02:22;;;;;;;12.65;7.03;;;8.00;73.90;;;;;;2373504;56;21042;-50
2022/11/28 04:04:56;;;;;;;14.50;8.98;;;8.00;73.90;;;;;;2373727;56;21126;-51
2022/11/28 04:07:30;;;;;;;13.02;6.32;;;8.10;74.00;;;;;;2374101;56;21661;-53
2022/11/28 04:10:02;;;;;;;12.25;7.25;;;8.10;74.00;;;;;;2372577;56;21126;-52
2022/11/28 04:12:36;;;;;;;14.45;8.48;;;8.10;73.70;;;;;;2374368;56;21516;-53
2022/11/28 04:15:11;;;;;;;13.77;6.93;;;8.00;73.50;;;;;;2374165;56;21526;-50
2022/11/28 04:17:48;;;;;;;14.10;7.32;;;8.00;73.50;;;;;;2373553;56;21107;-49
2022/11/28 04:20:23;;;;;;;18.17;8.48;;;8.00;73.60;;;;;;2373508;56;21055;-54
2022/11/28 04:22:56;;;;;;;14.10;7.37;;;8.00;73.40;;;;;;2373695;56;21602;-50
2022/11/28 04:25:25;;;;;;;15.27;7.65;;;8.00;73.30;;;;;;2373477;56;21519;-55
2022/11/28 04:27:56;;;;;;;12.88;7.93;;;8.00;73.30;;;;;;2374534;56;21567;-52
2022/11/28 04:30:23;;;;;;;12.65;7.65;;;7.90;73.20;;;;;;2374263;56;21579;-51
2022/11/28 04:32:54;;;;;;;13.13;7.37;;;7.90;72.90;;;;;;2374688;56;21584;-51
2022/11/28 04:35:25;;;;;;;14.43;7.65;;;7.90;73.10;;;;;;2374781;56;21503;-50
2022/11/28 04:37:56;;;;;;;10.73;7.12;;;7.90;73.10;;;;;;2372249;56;22107;-49
2022/11/28 04:40:25;;;;;;;15.35;7.87;;;7.90;73.10;;;;;;2373200;56;21087;-54
2022/11/28 04:42:55;;;;;;;14.90;7.80;;;7.90;73.10;;;;;;2373615;56;21043;-50
2022/11/28 04:45:27;;;;;;;13.35;7.95;;;7.90;73.10;;;;;;2373338;56;21566;-53
2022/11/28 04:47:54;;;;;;;15.48;8.65;;;7.90;73.10;;;;;;2374420;56;21023;-51
2022/11/28 04:50:27;;;;;;;15.27;7.55;;;7.90;73.20;;;;;;2374003;56;21622;-57
2022/11/28 04:55:39;;;;;;;14.85;8.63;;;7.90;73.10;;;;;;2354809;57;22572;-56
2022/11/28 04:58:12;;;;;;;13.88;8.63;;;7.80;73.00;;;;;;2340218;57;21079;-54
2022/11/28 05:00:39;;;;;;;16.42;9.00;;;7.80;73.20;;;;;;2320347;58;21131;-51
2022/11/28 05:03:08;;;;;;;16.45;8.13;;;7.80;73.10;;;;;;2319798;58;21595;-53
2022/11/28 05:05:43;;;;;;;13.77;7.45;;;7.80;73.10;;;;;;2321008;58;21652;-55
2022/11/28 05:08:11;;;;;;;19.35;8.20;;;7.80;73.20;;;;;;2321328;58;21127;-52
2022/11/28 05:10:38;;;;;;;17.40;8.13;;;7.80;73.20;;;;;;2321040;58;21080;-59
2022/11/28 05:13:05;;;;;;;15.85;7.85;;;7.70;73.20;;;;;;2319486;58;21035;-53
2022/11/28 05:15:32;;;;;;;14.73;8.50;;;7.70;73.40;;;;;;2320261;58;21056;-55
2022/11/28 05:18:00;;;;;;;16.83;8.70;;;7.70;73.50;;;;;;2319235;58;21123;-55
2022/11/28 05:20:27;;;;;;;18.95;8.43;;;7.70;73.50;;;;;;2320644;58;21087;-51
2022/11/28 05:22:55;;;;;;;20.10;9.00;;;7.70;73.60;;;;;;2320242;58;21551;-55
2022/11/28 05:25:22;;;;;;;16.80;9.05;;;7.60;73.50;;;;;;2320985;58;21115;-51
2022/11/28 05:27:49;;;;;;;16.05;8.88;;;7.60;73.70;;;;;;2319428;58;21072;-50
2022/11/28 05:30:17;;;;;;;16.30;8.38;;;7.60;73.90;;;;;;2319281;58;21124;-54
2022/11/28 05:32:44;;;;;;;17.90;9.13;;;7.60;74.10;;;;;;2319923;58;21056;-51
2022/11/28 05:35:11;;;;;;;17.55;9.15;;;7.50;74.10;;;;;;2320202;58;21128;-51
2022/11/28 05:37:38;;;;;;;14.98;8.70;;;7.50;74.40;;;;;;2319724;58;21667;-52
2022/11/28 05:40:08;;;;;;;17.30;9.23;;;7.50;74.60;;;;;;2319391;58;21615;-50
2022/11/28 05:42:35;;;;;;;16.00;9.50;;;7.40;74.60;;;;;;2321033;58;21496;-56
2022/11/28 05:45:04;;;;;;;21.02;8.93;;;7.40;75.60;;;;;;2321005;58;21103;-54
2022/11/28 05:47:31;;;;;;;20.23;9.93;;;7.40;74.90;;;;;;2320386;58;21179;-52
2022/11/28 05:49:59;;;;;;;15.75;9.15;;;7.40;74.80;;;;;;2320673;58;21123;-51
2022/11/28 05:52:30;;;;;;;15.07;8.73;;;7.50;75.00;;;;;;2320152;58;21052;-55
2022/11/28 05:54:59;;;;;;;13.52;8.65;;;7.50;75.30;;;;;;2319877;58;21044;-51
2022/11/28 05:57:28;;;;;;;17.35;9.30;;;7.60;75.20;;;;;;2320374;58;21552;-53
2022/11/28 05:59:56;;;;;;;18.30;10.50;;;7.70;75.30;;;;;;2320346;58;21048;-51
2022/11/28 06:02:23;;;;;;;16.37;9.43;;;7.80;75.20;;;;;;2320027;58;22075;-53
2022/11/28 06:04:50;;;;;;;15.57;8.40;;;7.80;75.00;;;;;;2319667;58;21131;-55
2022/11/28 06:07:18;;;;;;;18.23;10.57;;;7.80;74.70;;;;;;2319363;58;21096;-50
2022/11/28 06:09:46;;;;;;;17.17;9.45;;;7.80;74.60;;;;;;2318779;58;21119;-51
2022/11/28 06:12:13;;;;;;;20.70;10.75;;;7.80;74.50;;;;;;2318455;58;21061;-54
2022/11/28 06:14:40;;;;;;;20.50;10.60;;;7.80;74.60;;;;;;2319174;58;21654;-51
2022/11/28 06:17:07;;;;;;;17.70;10.50;;;7.80;74.40;;;;;;2318913;58;21060;-60
2022/11/28 06:19:35;;;;;;;19.02;10.25;;;7.80;74.90;;;;;;2317967;58;21368;-53
2022/11/28 06:22:02;;;;;;;21.33;10.80;;;7.80;75.10;;;;;;2320049;58;21099;-59
2022/11/28 06:24:29;;;;;;;22.60;11.12;;;7.80;75.00;;;;;;2319532;58;21043;-53
2022/11/28 06:26:57;;;;;;;18.52;9.95;;;7.90;75.30;;;;;;2320524;58;21032;-50
2022/11/28 06:29:24;;;;;;;19.17;9.98;;;7.90;75.50;;;;;;2319673;58;21126;-52
2022/11/28 06:31:51;;;;;;;18.70;9.90;;;8.00;74.90;;;;;;2319078;58;21572;-52
2022/11/28 06:34:18;;;;;;;19.05;9.90;;;8.00;74.00;;;;;;2319281;58;21048;-54
2022/11/28 06:36:45;;;;;;;19.08;9.98;;;8.00;73.50;;;;;;2318873;58;21116;-54
2022/11/28 06:39:14;;;;;;;22.08;11.50;;;8.00;73.20;;;;;;2318095;58;21035;-50
2022/11/28 06:41:42;;;;;;;19.75;10.48;;;7.90;73.20;;;;;;2319758;58;21048;-58
2022/11/28 06:44:13;;;;;;;23.50;10.95;;;7.80;73.20;;;;;;2319896;58;21575;-53
2022/11/28 06:46:40;;;;;;;27.00;12.05;;;7.70;73.50;;;;;;2319488;58;21523;-51
2022/11/28 06:49:09;;;;;;;20.58;10.05;;;7.70;73.80;;;;;;2319197;58;21636;-53
2022/11/28 06:51:36;;;;;;;22.37;12.27;;;7.60;73.90;;;;;;2319333;58;21603;-52
2022/11/28 06:56:40;;;;;;;21.25;11.55;;;7.60;74.10;;;;;;2328483;57;22108;-48
2022/11/28 06:59:10;;;;;;;23.35;10.70;;;7.60;74.40;;;;;;2398562;53;21063;-53
2022/11/28 07:01:37;;;;;;;20.25;10.95;;;7.60;74.50;;;;;;2321722;58;21036;-50
2022/11/28 07:04:05;;;;;;;24.70;13.18;;;7.60;74.60;;;;;;2321794;58;21107;-51
2022/11/28 07:06:33;;;;;;;22.92;11.73;;;7.60;74.50;;;;;;2321704;58;21701;-50
2022/11/28 07:09:00;;;;;;;25.37;13.48;;;7.60;74.50;;;;;;2312567;58;21631;-54
2022/11/28 07:11:29;;;;;;;23.10;11.98;;;7.60;74.60;;;;;;2292947;58;21050;-49
2022/11/28 07:13:57;;;;;;;23.62;13.13;;;7.60;74.50;;;;;;2294425;58;21093;-49
2022/11/28 07:16:27;;;;;;;22.17;12.85;;;7.60;74.40;;;;;;2294493;58;21573;-50
2022/11/28 07:18:55;;;;;;;28.98;13.45;;;7.60;74.40;;;;;;2295076;58;21150;-51
2022/11/28 07:21:22;;;;;;;21.45;11.98;;;7.60;74.50;;;;;;2294512;58;21142;-52
2022/11/28 07:23:50;;;;;;;26.48;12.43;;;7.60;74.40;;;;;;2294138;58;21130;-51
2022/11/28 07:26:20;;;;;;;25.50;13.50;;;7.60;74.40;;;;;;2294529;58;21506;-49
2022/11/28 07:28:48;;;;;;;26.27;12.63;;;7.60;74.40;;;;;;2292874;58;21102;-51
2022/11/28 07:31:17;;;;;;;27.23;13.57;;;7.60;74.30;;;;;;2294170;58;21680;-50
2022/11/28 07:33:46;;;;;;;24.33;13.15;;;7.60;74.30;;;;;;2294486;58;21546;-50
2022/11/28 07:36:15;;;;;;;22.77;12.77;;;7.60;74.40;;;;;;2295289;58;21561;-51
2022/11/28 07:38:46;;;;;;;23.45;13.07;;;7.70;74.40;;;;;;2295380;58;21134;-50
2022/11/28 07:41:14;;;;;;;27.10;13.70;;;7.60;74.40;;;;;;2294735;58;21506;-51
2022/11/28 07:43:44;;;;;;;23.48;12.40;;;7.60;74.60;;;;;;2294853;58;21614;-51
2022/11/28 07:46:14;;;;;;;24.58;13.10;;;7.60;74.70;;;;;;2294343;58;21106;-51
2022/11/28 07:48:42;;;;;;;25.08;13.05;;;7.60;74.60;;;;;;2294521;58;21511;-50
2022/11/28 07:51:12;;;;;;;29.33;13.23;;;7.60;74.60;;;;;;2294536;58;21550;-52
2022/11/28 07:53:40;;;;;;;26.37;12.70;;;7.60;74.50;;;;;;2294141;58;21074;-50
2022/11/28 07:56:12;;;;;;;29.63;14.20;;;7.60;74.40;;;;;;2294695;58;21569;-50
2022/11/28 07:58:41;;;;;;;26.30;13.95;;;7.60;74.30;;;;;;2294713;58;21137;-49
2022/11/28 08:01:12;;;;;;;27.95;12.90;;;7.60;74.40;;;;;;2294195;58;21128;-50
2022/11/28 08:03:40;;;;;;;24.87;12.85;;;7.60;74.40;;;;;;2294443;58;21117;-52
2022/11/28 08:06:08;;;;;;;25.05;12.82;;;7.60;74.50;;;;;;2294067;58;21467;-50
2022/11/28 08:08:42;;;;;;;24.25;12.43;;;7.60;74.60;;;;;;2293703;58;21772;-54
2022/11/28 08:11:10;;;;;;;24.40;12.20;;;7.60;74.20;;;;;;2294281;58;21685;-52
2022/11/28 08:13:38;;;;;;;24.80;13.90;;;7.70;74.20;;;;;;2292738;58;21549;-50
2022/11/28 08:16:07;;;;;;;26.85;13.13;;;7.70;74.40;;;;;;2294554;58;21042;-51
2022/11/28 08:18:35;;;;;;;25.88;14.57;;;7.70;74.30;;;;;;2293849;58;21042;-49
2022/11/28 08:21:06;;;;;;;23.20;13.35;;;7.70;74.20;;;;;;2294466;58;21053;-51
2022/11/28 08:23:34;;;;;;;23.87;12.55;;;7.80;74.30;;;;;;2293608;58;21110;-50
2022/11/28 08:26:02;;;;;;;25.37;13.55;;;7.80;74.00;;;;;;2293375;58;21614;-51
2022/11/28 08:28:30;;;;;;;24.30;12.55;;;7.70;73.90;;;;;;2293150;58;21122;-51
2022/11/28 08:30:58;;;;;;;24.25;11.60;;;7.70;74.00;;;;;;2291985;58;21526;-51
2022/11/28 08:33:25;;;;;;;27.62;12.70;;;7.70;74.10;;;;;;2293141;58;21145;-50
2022/11/28 08:35:52;;;;;;;26.55;12.85;;;7.80;74.10;;;;;;2293319;58;21062;-50
2022/11/28 08:38:19;;;;;;;29.60;13.23;;;7.70;73.90;;;;;;2293646;58;21541;-51
2022/11/28 08:40:47;;;;;;;23.95;11.48;;;7.70;74.00;;;;;;2293346;58;21066;-50
2022/11/28 08:43:14;;;;;;;25.77;12.88;;;7.70;73.90;;;;;;2293485;58;21137;-51
2022/11/28 08:45:41;;;;;;;25.05;12.07;;;7.70;73.80;;;;;;2293346;58;21110;-50
2022/11/28 08:48:08;;;;;;;23.25;11.80;;;7.70;73.60;;;;;;2292679;58;21542;-50
2022/11/28 08:50:35;;;;;;;20.98;10.52;;;7.70;73.70;;;;;;2292963;58;21381;-50
2022/11/28 08:53:02;;;;;;;26.90;11.55;;;7.70;73.80;;;;;;2292435;58;21070;-52
2022/11/28 08:55:29;;;;;;;27.25;13.38;;;7.80;73.90;;;;;;2293252;58;21074;-52
2022/11/28 08:57:56;;;;;;;27.70;13.07;;;7.80;73.70;;;;;;2292150;58;21624;-51
2022/11/28 09:00:24;;;;;;;23.30;12.00;;;7.80;73.70;;;;;;2291500;58;21078;-50
2022/11/28 09:02:51;;;;;;;22.35;12.57;;;7.80;73.70;;;;;;2292666;58;21054;-51
2022/11/28 09:05:18;;;;;;;22.70;12.32;;;7.90;73.70;;;;;;2291754;58;21133;-54
2022/11/28 09:07:45;;;;;;;20.95;11.82;;;7.90;73.60;;;;;;2292834;58;21569;-51
2022/11/28 09:10:12;;;;;;;23.00;11.23;;;8.00;73.60;;;;;;2292169;58;21066;-52
2022/11/28 09:12:40;;;;;;;29.48;13.45;;;7.90;73.30;;;;;;2293402;58;21054;-51
2022/11/28 09:15:09;;;;;;;23.70;11.93;;;7.90;73.60;;;;;;2292989;58;21090;-54
2022/11/28 09:17:36;;;;;;;21.80;12.35;;;7.90;73.10;;;;;;2292696;58;21070;-51
2022/11/28 09:20:06;;;;;;;20.25;10.32;;;7.90;73.10;;;;;;2293179;58;21067;-54
2022/11/28 09:25:09;;;;;;;20.55;12.77;;;8.00;73.20;;;;;;2335031;57;28852;-50
2022/11/28 09:27:36;;;;;;;25.92;12.35;;;7.90;73.80;;;;;;2348040;57;21153;-51
2022/11/28 09:30:06;;;;;;;25.12;12.05;;;8.00;73.40;;;;;;2347229;57;21502;-51
2022/11/28 09:32:34;;;;;;;21.62;10.90;;;8.10;73.00;;;;;;2344377;57;21541;-51
2022/11/28 09:35:01;;;;;;;22.60;11.82;;;8.10;73.30;;;;;;2346326;57;21026;-50
2022/11/28 09:37:28;;;;;;;22.58;11.70;;;8.10;72.20;;;;;;2345229;57;21046;-51
2022/11/28 09:39:55;;;;;;;19.15;10.13;;;8.10;72.30;;;;;;2345102;57;21045;-49
2022/11/28 09:42:31;;;;;;;23.80;12.13;;;8.10;72.20;;;;;;2342877;57;21042;-50
2022/11/28 09:45:01;;;;;;;20.70;11.20;;;8.10;72.00;;;;;;2344709;57;21062;-49
2022/11/28 09:47:31;;;;;;;20.23;11.02;;;8.10;72.00;;;;;;2345662;57;21602;-52
2022/11/28 09:50:02;;;;;;;24.33;12.02;;;8.10;72.30;;;;;;2345850;57;21598;-49
2022/11/28 09:52:35;;;;;;;20.60;11.38;;;8.20;72.20;;;;;;2344956;57;21577;-50
2022/11/28 09:55:13;;;;;;;22.90;11.32;;;8.10;72.00;;;;;;2344299;57;21038;-49
2022/11/28 09:57:43;;;;;;;18.70;10.65;;;8.20;72.20;;;;;;2343244;57;21616;-50
2022/11/28 10:00:20;;;;;;;20.10;10.13;;;8.20;72.00;;;;;;2343411;57;21042;-50
2022/11/28 10:03:10;;;;;;;26.80;11.38;;;8.20;71.90;;;;;;2343523;57;21112;-51
2022/11/28 10:08:29;;;;;;;20.00;11.25;;;8.10;71.70;;;;;;2355724;57;22136;-50
2022/11/28 10:11:03;;;;;;;19.10;10.32;;;8.00;71.80;;;;;;2321077;58;21108;-49
2022/11/28 10:13:43;;;;;;;18.73;10.48;;;8.10;72.10;;;;;;2320767;58;22105;-50
2022/11/28 10:16:17;;;;;;;20.48;10.70;;;8.10;71.80;;;;;;2319662;58;21116;-50
2022/11/28 10:18:49;;;;;;;18.37;10.00;;;8.00;71.50;;;;;;2319845;58;22149;-49
2022/11/28 10:21:26;;;;;;;24.92;12.30;;;8.00;71.80;;;;;;2318337;58;21048;-52
2022/11/28 10:23:57;;;;;;;20.42;10.85;;;8.00;71.90;;;;;;2319069;58;22130;-49
2022/11/28 10:26:31;;;;;;;24.48;11.55;;;8.10;72.00;;;;;;2320527;58;21571;-49
2022/11/28 10:29:01;;;;;;;19.12;10.55;;;8.10;71.70;;;;;;2320656;58;21111;-51
2022/11/28 10:31:34;;;;;;;21.10;11.00;;;8.10;71.70;;;;;;2319244;58;21860;-49
2022/11/28 10:34:08;;;;;;;17.67;9.88;;;8.10;71.50;;;;;;2316283;58;21036;-49
2022/11/28 10:36:50;;;;;;;22.17;11.27;;;8.10;71.40;;;;;;2317634;58;21394;-49
2022/11/28 10:39:18;;;;;;;21.45;11.85;;;8.10;71.40;;;;;;2317488;58;21136;-50
2022/11/28 10:42:10;;;;;;;17.98;10.40;;;8.10;71.20;;;;;;2317043;58;21063;-50
2022/11/28 10:44:46;;;;;;;22.73;11.43;;;8.10;71.20;;;;;;2319517;58;21020;-49
2022/11/28 10:47:23;;;;;;;23.35;11.02;;;8.10;71.20;;;;;;2319016;58;21044;-51
2022/11/28 10:50:00;;;;;;;23.12;10.27;;;8.10;71.10;;;;;;2319553;57;21036;-50
2022/11/28 10:52:34;;;;;;;20.58;9.70;;;8.10;71.10;;;;;;2319810;58;21052;-53
2022/11/28 10:55:16;;;;;;;18.73;10.10;;;8.10;70.90;;;;;;2317259;58;21624;-51
2022/11/28 10:57:51;;;;;;;18.80;10.25;;;8.00;70.90;;;;;;2319500;58;21750;-52
2022/11/28 11:00:19;;;;;;;21.00;9.73;;;8.10;70.90;;;;;;2316909;58;21123;-49
2022/11/28 11:02:49;;;;;;;18.17;11.40;;;8.00;70.90;;;;;;2317437;58;21036;-50
2022/11/28 11:05:18;;;;;;;22.73;11.32;;;8.00;70.90;;;;;;2319485;58;21139;-50
2022/11/28 11:07:49;;;;;;;22.30;11.40;;;8.10;70.90;;;;;;2319939;58;21579;-50
2022/11/28 11:10:19;;;;;;;22.75;11.18;;;8.00;70.80;;;;;;2317359;58;21054;-49
2022/11/28 11:12:49;;;;;;;20.65;10.48;;;8.00;70.90;;;;;;2317803;58;21063;-49
2022/11/28 11:15:23;;;;;;;21.37;10.98;;;8.00;71.20;;;;;;2316350;58;21540;-52
2022/11/28 11:17:50;;;;;;;19.27;11.00;;;8.10;71.30;;;;;;2315459;58;21147;-50
2022/11/28 11:20:34;;;;;;;19.17;10.95;;;8.10;71.00;;;;;;2313171;58;21732;-53
2022/11/28 11:23:11;;;;;;;19.10;9.73;;;8.10;71.10;;;;;;2315500;58;21031;-50
2022/11/28 11:25:47;;;;;;;18.27;9.73;;;8.10;70.80;;;;;;2319345;58;21512;-51
2022/11/28 11:28:39;;;;;;;19.70;10.57;;;8.10;70.80;;;;;;2318576;58;21528;-49
2022/11/28 11:31:17;;;;;;;22.62;10.98;;;8.10;71.00;;;;;;2318755;58;21185;-49
2022/11/28 11:33:44;;;;;;;21.65;9.55;;;8.20;71.10;;;;;;2317216;58;21370;-49
2022/11/28 11:36:23;;;;;;;20.62;11.27;;;8.20;70.90;;;;;;2317697;58;21055;-49
2022/11/28 11:38:51;;;;;;;19.08;9.75;;;8.10;70.60;;;;;;2318198;58;21130;-50
2022/11/28 11:41:29;;;;;;;18.40;9.40;;;8.20;70.70;;;;;;2318395;58;21524;-53
2022/11/28 11:44:19;;;;;;;17.62;9.05;;;8.10;70.60;;;;;;2317748;58;21524;-53
2022/11/28 11:46:52;;;;;;;15.25;9.50;;;8.10;70.50;;;;;;2316822;58;21095;-49
2022/11/28 11:49:29;;;;;;;21.37;10.88;;;8.10;70.80;;;;;;2315503;58;21663;-52
2022/11/28 11:51:57;;;;;;;17.23;9.43;;;8.20;70.80;;;;;;2317336;58;21555;-52
2022/11/28 11:54:25;;;;;;;18.65;10.13;;;8.20;70.80;;;;;;2318768;58;21097;-49
2022/11/28 11:56:52;;;;;;;22.40;10.15;;;8.20;70.80;;;;;;2317284;58;21135;-50
2022/11/28 11:59:24;;;;;;;19.42;10.43;;;8.20;71.00;;;;;;2318915;58;21064;-53
2022/11/28 12:01:56;;;;;;;19.12;10.18;;;8.20;71.00;;;;;;2319472;58;21136;-51
2022/11/28 12:04:30;;;;;;;15.98;9.25;;;8.20;71.20;;;;;;2320259;58;21036;-54
2022/11/28 12:07:01;;;;;;;17.70;10.15;;;8.20;71.10;;;;;;2319840;58;21027;-51
2022/11/28 12:09:33;;;;;;;18.25;10.48;;;8.20;70.90;;;;;;2319413;58;21071;-49
2022/11/28 12:12:08;;;;;;;19.52;9.93;;;8.20;71.10;;;;;;2317729;58;21052;-51
2022/11/28 12:14:37;;;;;;;18.65;10.05;;;8.20;71.20;;;;;;2318724;58;21696;-53
2022/11/28 12:17:21;;;;;;;22.73;10.15;;;8.20;71.40;;;;;;2318917;58;21052;-51
2022/11/28 12:19:58;;;;;;;17.80;10.07;;;8.20;71.70;;;;;;2318629;58;21119;-53
2022/11/28 12:22:37;;;;;;;19.45;10.90;;;8.20;71.70;;;;;;2319313;58;21067;-51
2022/11/28 12:25:13;;;;;;;18.35;10.00;;;8.30;71.90;;;;;;2319550;58;21068;-51
2022/11/28 12:27:55;;;;;;;18.08;9.52;;;8.30;71.80;;;;;;2318030;58;21057;-51
2022/11/28 12:30:32;;;;;;;21.08;10.20;;;8.30;71.80;;;;;;2317985;58;22114;-50
2022/11/28 12:33:14;;;;;;;21.70;10.63;;;8.30;71.80;;;;;;2318325;58;21123;-49
2022/11/28 12:35:47;;;;;;;21.52;10.35;;;8.30;71.90;;;;;;2318591;58;21594;-51
2022/11/28 12:38:27;;;;;;;20.52;10.35;;;8.20;71.90;;;;;;2320017;58;21622;-49
2022/11/28 12:41:13;;;;;;;17.87;10.48;;;8.20;72.00;;;;;;2319915;58;21523;-51
2022/11/28 12:46:27;;;;;;;19.12;10.60;;;8.20;72.00;;;;;;2355059;57;22094;-49
2022/11/28 12:49:09;;;;;;;18.70;10.20;;;8.10;72.00;;;;;;2346543;57;21125;-49
2022/11/28 12:51:49;;;;;;;19.67;10.43;;;8.10;72.10;;;;;;2345561;57;21078;-49
2022/11/28 12:54:34;;;;;;;20.65;11.30;;;8.10;72.30;;;;;;2344890;57;21703;-49
2022/11/28 12:57:07;;;;;;;23.20;11.65;;;8.10;72.40;;;;;;2345239;57;21526;-50
2022/11/28 12:59:41;;;;;;;19.65;11.68;;;8.10;72.60;;;;;;2435551;52;21069;-54
2022/11/28 13:02:24;;;;;;;19.40;10.73;;;8.00;72.60;;;;;;2376244;56;21023;-55
2022/11/28 13:05:12;;;;;;;22.87;11.38;;;8.00;72.80;;;;;;2376742;56;21090;-51
2022/11/28 13:07:48;;;;;;;19.87;9.77;;;8.00;73.00;;;;;;2376607;56;21106;-55
2022/11/28 13:10:22;;;;;;;24.15;9.75;;;8.00;73.20;;;;;;2375376;56;21590;-57
2022/11/28 13:12:57;;;;;;;22.55;10.38;;;8.00;73.30;;;;;;2374150;56;21645;-53
2022/11/28 13:15:44;;;;;;;17.83;10.27;;;8.00;73.20;;;;;;2374337;56;21589;-51
2022/11/28 13:18:23;;;;;;;22.80;10.65;;;8.00;73.40;;;;;;2376396;56;21623;-52
2022/11/28 13:20:57;;;;;;;19.40;11.27;;;7.90;73.40;;;;;;2375471;56;21003;-50
2022/11/28 13:23:30;;;;;;;20.60;9.90;;;7.90;73.60;;;;;;2374792;56;21289;-58
2022/11/28 13:26:05;;;;;;;21.48;11.23;;;7.90;73.80;;;;;;2374483;56;21596;-56